<?xml version="1.0" encoding="UTF-8" standalone="no" ?>
<gpx xmlns="http://www.topografix.com/GPX/1/1" xmlns:xsi="http://www.w3.org/2001/XMLSchema-instance" xsi:schemaLocation="http://www.topografix.com/GPX/1/1 http://www.topografix.com/GPX/1/1/gpx.xsd" version="1.1" creator="VisuGPX - https://www.visugpx.com">
  <metadata>
    <name>13782482-Les 3 Croix col de la république GR2</name>
  </metadata>
  <trk>
    <name><![CDATA[13782482-Les 3 Croix col de la république GR2]]></name>
    <trkseg>
      <trkpt lat="45.3275" lon="4.48039">
        <ele>1150</ele>
        <time>2022-02-02T09:36:08Z</time>
      </trkpt>
      <trkpt lat="45.32701" lon="4.48099">
        <ele>1148</ele>
        <time>2022-02-02T09:37:34Z</time>
      </trkpt>
      <trkpt lat="45.32677" lon="4.48135">
        <ele>1145</ele>
        <time>2022-02-02T09:38:21Z</time>
      </trkpt>
      <trkpt lat="45.32672" lon="4.48131">
        <ele>1144</ele>
        <time>2022-02-02T09:38:28Z</time>
      </trkpt>
      <trkpt lat="45.32663" lon="4.48128">
        <ele>1143</ele>
        <time>2022-02-02T09:38:41Z</time>
      </trkpt>
      <trkpt lat="45.32649" lon="4.48129">
        <ele>1143</ele>
        <time>2022-02-02T09:39:00Z</time>
      </trkpt>
      <trkpt lat="45.32623" lon="4.48136">
        <ele>1142</ele>
        <time>2022-02-02T09:39:35Z</time>
      </trkpt>
      <trkpt lat="45.3261" lon="4.48131">
        <ele>1142</ele>
        <time>2022-02-02T09:39:53Z</time>
      </trkpt>
      <trkpt lat="45.326" lon="4.48144">
        <ele>1141</ele>
        <time>2022-02-02T09:40:11Z</time>
      </trkpt>
      <trkpt lat="45.32469" lon="4.48214">
        <ele>1143</ele>
        <time>2022-02-02T09:43:18Z</time>
      </trkpt>
      <trkpt lat="45.32332" lon="4.48351">
        <ele>1142</ele>
        <time>2022-02-02T09:47:01Z</time>
      </trkpt>
      <trkpt lat="45.32301" lon="4.48405">
        <ele>1135</ele>
        <time>2022-02-02T09:48:07Z</time>
      </trkpt>
      <trkpt lat="45.32257" lon="4.4843">
        <ele>1137</ele>
        <time>2022-02-02T09:49:10Z</time>
      </trkpt>
      <trkpt lat="45.32214" lon="4.48441">
        <ele>1142</ele>
        <time>2022-02-02T09:50:08Z</time>
      </trkpt>
      <trkpt lat="45.32164" lon="4.48418">
        <ele>1154</ele>
        <time>2022-02-02T09:51:18Z</time>
      </trkpt>
      <trkpt lat="45.32124" lon="4.48388">
        <ele>1165</ele>
        <time>2022-02-02T09:52:19Z</time>
      </trkpt>
      <trkpt lat="45.32099" lon="4.48347">
        <ele>1178</ele>
        <time>2022-02-02T09:53:09Z</time>
      </trkpt>
      <trkpt lat="45.32076" lon="4.48335">
        <ele>1183</ele>
        <time>2022-02-02T09:53:42Z</time>
      </trkpt>
      <trkpt lat="45.32014" lon="4.48342">
        <ele>1186</ele>
        <time>2022-02-02T09:55:05Z</time>
      </trkpt>
      <trkpt lat="45.3192" lon="4.48311">
        <ele>1208</ele>
        <time>2022-02-02T09:57:14Z</time>
      </trkpt>
      <trkpt lat="45.31886" lon="4.48269">
        <ele>1219</ele>
        <time>2022-02-02T09:58:14Z</time>
      </trkpt>
      <trkpt lat="45.31839" lon="4.48248">
        <ele>1225</ele>
        <time>2022-02-02T09:59:20Z</time>
      </trkpt>
      <trkpt lat="45.318" lon="4.48189">
        <ele>1226</ele>
        <time>2022-02-02T10:00:36Z</time>
      </trkpt>
      <trkpt lat="45.31761" lon="4.48145">
        <ele>1223</ele>
        <time>2022-02-02T10:01:42Z</time>
      </trkpt>
      <trkpt lat="45.31694" lon="4.48124">
        <ele>1220</ele>
        <time>2022-02-02T10:03:14Z</time>
      </trkpt>
      <trkpt lat="45.31635" lon="4.48062">
        <ele>1214</ele>
        <time>2022-02-02T10:04:52Z</time>
      </trkpt>
      <trkpt lat="45.31565" lon="4.47955">
        <ele>1204</ele>
        <time>2022-02-02T10:07:09Z</time>
      </trkpt>
      <trkpt lat="45.3157" lon="4.47954">
        <ele>1204</ele>
        <time>2022-02-02T10:07:16Z</time>
      </trkpt>
      <trkpt lat="45.31565" lon="4.47955">
        <ele>1204</ele>
        <time>2022-02-02T10:07:22Z</time>
      </trkpt>
      <trkpt lat="45.31536" lon="4.47916">
        <ele>1200</ele>
        <time>2022-02-02T10:08:16Z</time>
      </trkpt>
      <trkpt lat="45.31493" lon="4.47879">
        <ele>1202</ele>
        <time>2022-02-02T10:09:23Z</time>
      </trkpt>
      <trkpt lat="45.31372" lon="4.47819">
        <ele>1199</ele>
        <time>2022-02-02T10:12:14Z</time>
      </trkpt>
      <trkpt lat="45.31114" lon="4.47735">
        <ele>1195</ele>
        <time>2022-02-02T10:18:07Z</time>
      </trkpt>
      <trkpt lat="45.3107" lon="4.47727">
        <ele>1194</ele>
        <time>2022-02-02T10:19:06Z</time>
      </trkpt>
      <trkpt lat="45.30919" lon="4.47751">
        <ele>1196</ele>
        <time>2022-02-02T10:22:29Z</time>
      </trkpt>
      <trkpt lat="45.30893" lon="4.47744">
        <ele>1194</ele>
        <time>2022-02-02T10:23:04Z</time>
      </trkpt>
      <trkpt lat="45.3086" lon="4.4772">
        <ele>1191</ele>
        <time>2022-02-02T10:23:54Z</time>
      </trkpt>
      <trkpt lat="45.30819" lon="4.47675">
        <ele>1188</ele>
        <time>2022-02-02T10:25:03Z</time>
      </trkpt>
      <trkpt lat="45.30804" lon="4.47668">
        <ele>1186</ele>
        <time>2022-02-02T10:25:24Z</time>
      </trkpt>
      <trkpt lat="45.30743" lon="4.47654">
        <ele>1179</ele>
        <time>2022-02-02T10:26:46Z</time>
      </trkpt>
      <trkpt lat="45.30731" lon="4.47629">
        <ele>1179</ele>
        <time>2022-02-02T10:27:15Z</time>
      </trkpt>
      <trkpt lat="45.30722" lon="4.47624">
        <ele>1179</ele>
        <time>2022-02-02T10:27:27Z</time>
      </trkpt>
      <trkpt lat="45.30687" lon="4.47642">
        <ele>1176</ele>
        <time>2022-02-02T10:28:17Z</time>
      </trkpt>
      <trkpt lat="45.30675" lon="4.47666">
        <ele>1175</ele>
        <time>2022-02-02T10:28:45Z</time>
      </trkpt>
      <trkpt lat="45.30656" lon="4.47688">
        <ele>1175</ele>
        <time>2022-02-02T10:29:17Z</time>
      </trkpt>
      <trkpt lat="45.30563" lon="4.47754">
        <ele>1171</ele>
        <time>2022-02-02T10:31:36Z</time>
      </trkpt>
      <trkpt lat="45.30541" lon="4.47696">
        <ele>1172</ele>
        <time>2022-02-02T10:32:38Z</time>
      </trkpt>
      <trkpt lat="45.30524" lon="4.47658">
        <ele>1171</ele>
        <time>2022-02-02T10:33:20Z</time>
      </trkpt>
      <trkpt lat="45.30522" lon="4.47647">
        <ele>1170</ele>
        <time>2022-02-02T10:33:31Z</time>
      </trkpt>
      <trkpt lat="45.30525" lon="4.47617">
        <ele>1169</ele>
        <time>2022-02-02T10:33:59Z</time>
      </trkpt>
      <trkpt lat="45.30523" lon="4.47602">
        <ele>1169</ele>
        <time>2022-02-02T10:34:14Z</time>
      </trkpt>
      <trkpt lat="45.30518" lon="4.47585">
        <ele>1168</ele>
        <time>2022-02-02T10:34:31Z</time>
      </trkpt>
      <trkpt lat="45.30507" lon="4.47561">
        <ele>1166</ele>
        <time>2022-02-02T10:34:58Z</time>
      </trkpt>
      <trkpt lat="45.30488" lon="4.47529">
        <ele>1163</ele>
        <time>2022-02-02T10:35:37Z</time>
      </trkpt>
      <trkpt lat="45.30498" lon="4.47471">
        <ele>1161</ele>
        <time>2022-02-02T10:36:33Z</time>
      </trkpt>
      <trkpt lat="45.3051" lon="4.47412">
        <ele>1158</ele>
        <time>2022-02-02T10:37:31Z</time>
      </trkpt>
      <trkpt lat="45.30514" lon="4.47402">
        <ele>1158</ele>
        <time>2022-02-02T10:37:42Z</time>
      </trkpt>
      <trkpt lat="45.30496" lon="4.47383">
        <ele>1156</ele>
        <time>2022-02-02T10:38:12Z</time>
      </trkpt>
      <trkpt lat="45.30492" lon="4.47374">
        <ele>1155</ele>
        <time>2022-02-02T10:38:22Z</time>
      </trkpt>
      <trkpt lat="45.30483" lon="4.47329">
        <ele>1153</ele>
        <time>2022-02-02T10:39:06Z</time>
      </trkpt>
      <trkpt lat="45.30472" lon="4.47301">
        <ele>1152</ele>
        <time>2022-02-02T10:39:36Z</time>
      </trkpt>
      <trkpt lat="45.30461" lon="4.47282">
        <ele>1151</ele>
        <time>2022-02-02T10:39:59Z</time>
      </trkpt>
      <trkpt lat="45.30448" lon="4.47264">
        <ele>1150</ele>
        <time>2022-02-02T10:40:23Z</time>
      </trkpt>
      <trkpt lat="45.3042" lon="4.47236">
        <ele>1148</ele>
        <time>2022-02-02T10:41:09Z</time>
      </trkpt>
      <trkpt lat="45.30405" lon="4.47215">
        <ele>1147</ele>
        <time>2022-02-02T10:41:37Z</time>
      </trkpt>
      <trkpt lat="45.30398" lon="4.47178">
        <ele>1147</ele>
        <time>2022-02-02T10:42:13Z</time>
      </trkpt>
      <trkpt lat="45.30397" lon="4.47151">
        <ele>1147</ele>
        <time>2022-02-02T10:42:38Z</time>
      </trkpt>
      <trkpt lat="45.3038" lon="4.4711">
        <ele>1146</ele>
        <time>2022-02-02T10:43:23Z</time>
      </trkpt>
      <trkpt lat="45.30363" lon="4.47055">
        <ele>1143</ele>
        <time>2022-02-02T10:44:19Z</time>
      </trkpt>
      <trkpt lat="45.30355" lon="4.47041">
        <ele>1141</ele>
        <time>2022-02-02T10:44:36Z</time>
      </trkpt>
      <trkpt lat="45.30345" lon="4.47026">
        <ele>1140</ele>
        <time>2022-02-02T10:44:55Z</time>
      </trkpt>
      <trkpt lat="45.30347" lon="4.47015">
        <ele>1140</ele>
        <time>2022-02-02T10:45:06Z</time>
      </trkpt>
      <trkpt lat="45.30337" lon="4.46984">
        <ele>1139</ele>
        <time>2022-02-02T10:45:38Z</time>
      </trkpt>
      <trkpt lat="45.30333" lon="4.46966">
        <ele>1140</ele>
        <time>2022-02-02T10:45:56Z</time>
      </trkpt>
      <trkpt lat="45.30335" lon="4.46954">
        <ele>1141</ele>
        <time>2022-02-02T10:46:07Z</time>
      </trkpt>
      <trkpt lat="45.30331" lon="4.46918">
        <ele>1143</ele>
        <time>2022-02-02T10:46:42Z</time>
      </trkpt>
      <trkpt lat="45.30321" lon="4.46901">
        <ele>1142</ele>
        <time>2022-02-02T10:47:02Z</time>
      </trkpt>
      <trkpt lat="45.30295" lon="4.46839">
        <ele>1140</ele>
        <time>2022-02-02T10:48:10Z</time>
      </trkpt>
      <trkpt lat="45.30281" lon="4.46787">
        <ele>1141</ele>
        <time>2022-02-02T10:49:02Z</time>
      </trkpt>
      <trkpt lat="45.30247" lon="4.46683">
        <ele>1141</ele>
        <time>2022-02-02T10:50:50Z</time>
      </trkpt>
      <trkpt lat="45.30232" lon="4.46624">
        <ele>1137</ele>
        <time>2022-02-02T10:51:49Z</time>
      </trkpt>
      <trkpt lat="45.30216" lon="4.4655">
        <ele>1132</ele>
        <time>2022-02-02T10:53:02Z</time>
      </trkpt>
      <trkpt lat="45.30207" lon="4.46517">
        <ele>1130</ele>
        <time>2022-02-02T10:53:35Z</time>
      </trkpt>
      <trkpt lat="45.30163" lon="4.46431">
        <ele>1122</ele>
        <time>2022-02-02T10:55:15Z</time>
      </trkpt>
      <trkpt lat="45.30128" lon="4.46372">
        <ele>1122</ele>
        <time>2022-02-02T10:56:27Z</time>
      </trkpt>
      <trkpt lat="45.30094" lon="4.46336">
        <ele>1122</ele>
        <time>2022-02-02T10:57:24Z</time>
      </trkpt>
      <trkpt lat="45.30077" lon="4.46303">
        <ele>1121</ele>
        <time>2022-02-02T10:58:02Z</time>
      </trkpt>
      <trkpt lat="45.30072" lon="4.46269">
        <ele>1122</ele>
        <time>2022-02-02T10:58:35Z</time>
      </trkpt>
      <trkpt lat="45.30065" lon="4.46258">
        <ele>1120</ele>
        <time>2022-02-02T10:58:49Z</time>
      </trkpt>
      <trkpt lat="45.3006" lon="4.46234">
        <ele>1118</ele>
        <time>2022-02-02T10:59:12Z</time>
      </trkpt>
      <trkpt lat="45.3006" lon="4.46187">
        <ele>1115</ele>
        <time>2022-02-02T10:59:56Z</time>
      </trkpt>
      <trkpt lat="45.30058" lon="4.46175">
        <ele>1114</ele>
        <time>2022-02-02T11:00:08Z</time>
      </trkpt>
      <trkpt lat="45.30054" lon="4.46163">
        <ele>1112</ele>
        <time>2022-02-02T11:00:20Z</time>
      </trkpt>
      <trkpt lat="45.30052" lon="4.46147">
        <ele>1110</ele>
        <time>2022-02-02T11:00:35Z</time>
      </trkpt>
      <trkpt lat="45.30053" lon="4.46112">
        <ele>1108</ele>
        <time>2022-02-02T11:01:08Z</time>
      </trkpt>
      <trkpt lat="45.30037" lon="4.46152">
        <ele>1107</ele>
        <time>2022-02-02T11:01:52Z</time>
      </trkpt>
      <trkpt lat="45.30022" lon="4.46197">
        <ele>1105</ele>
        <time>2022-02-02T11:02:38Z</time>
      </trkpt>
      <trkpt lat="45.30016" lon="4.46235">
        <ele>1105</ele>
        <time>2022-02-02T11:03:15Z</time>
      </trkpt>
      <trkpt lat="45.30018" lon="4.46267">
        <ele>1106</ele>
        <time>2022-02-02T11:03:45Z</time>
      </trkpt>
      <trkpt lat="45.30016" lon="4.463">
        <ele>1106</ele>
        <time>2022-02-02T11:04:16Z</time>
      </trkpt>
      <trkpt lat="45.30003" lon="4.46318">
        <ele>1103</ele>
        <time>2022-02-02T11:04:40Z</time>
      </trkpt>
      <trkpt lat="45.29988" lon="4.46313">
        <ele>1104</ele>
        <time>2022-02-02T11:05:01Z</time>
      </trkpt>
      <trkpt lat="45.29982" lon="4.46299">
        <ele>1105</ele>
        <time>2022-02-02T11:05:16Z</time>
      </trkpt>
      <trkpt lat="45.29972" lon="4.46322">
        <ele>1107</ele>
        <time>2022-02-02T11:05:42Z</time>
      </trkpt>
      <trkpt lat="45.29941" lon="4.46279">
        <ele>1108</ele>
        <time>2022-02-02T11:06:39Z</time>
      </trkpt>
      <trkpt lat="45.29897" lon="4.46232">
        <ele>1110</ele>
        <time>2022-02-02T11:07:53Z</time>
      </trkpt>
      <trkpt lat="45.29871" lon="4.46217">
        <ele>1117</ele>
        <time>2022-02-02T11:08:30Z</time>
      </trkpt>
      <trkpt lat="45.29854" lon="4.46175">
        <ele>1118</ele>
        <time>2022-02-02T11:09:16Z</time>
      </trkpt>
      <trkpt lat="45.29826" lon="4.46113">
        <ele>1118</ele>
        <time>2022-02-02T11:10:25Z</time>
      </trkpt>
      <trkpt lat="45.29787" lon="4.46052">
        <ele>1118</ele>
        <time>2022-02-02T11:11:42Z</time>
      </trkpt>
      <trkpt lat="45.29743" lon="4.46004">
        <ele>1120</ele>
        <time>2022-02-02T11:12:56Z</time>
      </trkpt>
      <trkpt lat="45.29719" lon="4.45971">
        <ele>1118</ele>
        <time>2022-02-02T11:13:41Z</time>
      </trkpt>
      <trkpt lat="45.29685" lon="4.45908">
        <ele>1113</ele>
        <time>2022-02-02T11:14:55Z</time>
      </trkpt>
      <trkpt lat="45.29652" lon="4.45859">
        <ele>1111</ele>
        <time>2022-02-02T11:15:59Z</time>
      </trkpt>
      <trkpt lat="45.29611" lon="4.45807">
        <ele>1109</ele>
        <time>2022-02-02T11:17:12Z</time>
      </trkpt>
      <trkpt lat="45.29587" lon="4.45786">
        <ele>1109</ele>
        <time>2022-02-02T11:17:50Z</time>
      </trkpt>
      <trkpt lat="45.29556" lon="4.45747">
        <ele>1108</ele>
        <time>2022-02-02T11:18:45Z</time>
      </trkpt>
      <trkpt lat="45.29532" lon="4.4571">
        <ele>1105</ele>
        <time>2022-02-02T11:19:33Z</time>
      </trkpt>
      <trkpt lat="45.29504" lon="4.45685">
        <ele>1106</ele>
        <time>2022-02-02T11:20:17Z</time>
      </trkpt>
      <trkpt lat="45.29478" lon="4.45673">
        <ele>1107</ele>
        <time>2022-02-02T11:20:53Z</time>
      </trkpt>
      <trkpt lat="45.29466" lon="4.45657">
        <ele>1106</ele>
        <time>2022-02-02T11:21:15Z</time>
      </trkpt>
      <trkpt lat="45.29446" lon="4.45625">
        <ele>1106</ele>
        <time>2022-02-02T11:21:55Z</time>
      </trkpt>
      <trkpt lat="45.2944" lon="4.45553">
        <ele>1103</ele>
        <time>2022-02-02T11:23:03Z</time>
      </trkpt>
      <trkpt lat="45.29421" lon="4.45476">
        <ele>1105</ele>
        <time>2022-02-02T11:24:20Z</time>
      </trkpt>
      <trkpt lat="45.29367" lon="4.45394">
        <ele>1107</ele>
        <time>2022-02-02T11:26:05Z</time>
      </trkpt>
      <trkpt lat="45.29309" lon="4.45363">
        <ele>1112</ele>
        <time>2022-02-02T11:27:28Z</time>
      </trkpt>
      <trkpt lat="45.2927" lon="4.45365">
        <ele>1118</ele>
        <time>2022-02-02T11:28:20Z</time>
      </trkpt>
      <trkpt lat="45.29257" lon="4.45293">
        <ele>1112</ele>
        <time>2022-02-02T11:29:30Z</time>
      </trkpt>
      <trkpt lat="45.29224" lon="4.45274">
        <ele>1113</ele>
        <time>2022-02-02T11:30:17Z</time>
      </trkpt>
      <trkpt lat="45.29177" lon="4.45226">
        <ele>1113</ele>
        <time>2022-02-02T11:31:35Z</time>
      </trkpt>
      <trkpt lat="45.29168" lon="4.45202">
        <ele>1110</ele>
        <time>2022-02-02T11:32:00Z</time>
      </trkpt>
      <trkpt lat="45.29136" lon="4.45132">
        <ele>1104</ele>
        <time>2022-02-02T11:33:19Z</time>
      </trkpt>
      <trkpt lat="45.29128" lon="4.45126">
        <ele>1104</ele>
        <time>2022-02-02T11:33:31Z</time>
      </trkpt>
      <trkpt lat="45.29111" lon="4.451">
        <ele>1103</ele>
        <time>2022-02-02T11:34:04Z</time>
      </trkpt>
      <trkpt lat="45.29089" lon="4.45069">
        <ele>1102</ele>
        <time>2022-02-02T11:34:45Z</time>
      </trkpt>
      <trkpt lat="45.2905" lon="4.45047">
        <ele>1105</ele>
        <time>2022-02-02T11:35:41Z</time>
      </trkpt>
      <trkpt lat="45.29033" lon="4.45049">
        <ele>1109</ele>
        <time>2022-02-02T11:36:04Z</time>
      </trkpt>
      <trkpt lat="45.28981" lon="4.44984">
        <ele>1108</ele>
        <time>2022-02-02T11:37:37Z</time>
      </trkpt>
      <trkpt lat="45.28886" lon="4.44899">
        <ele>1112</ele>
        <time>2022-02-02T11:40:06Z</time>
      </trkpt>
      <trkpt lat="45.28847" lon="4.44836">
        <ele>1108</ele>
        <time>2022-02-02T11:41:25Z</time>
      </trkpt>
      <trkpt lat="45.28885" lon="4.44937">
        <ele>1118</ele>
        <time>2022-02-02T11:43:13Z</time>
      </trkpt>
      <trkpt lat="45.28927" lon="4.45034">
        <ele>1125</ele>
        <time>2022-02-02T11:45:00Z</time>
      </trkpt>
      <trkpt lat="45.28951" lon="4.4511">
        <ele>1131</ele>
        <time>2022-02-02T11:46:18Z</time>
      </trkpt>
      <trkpt lat="45.28978" lon="4.45166">
        <ele>1133</ele>
        <time>2022-02-02T11:47:22Z</time>
      </trkpt>
      <trkpt lat="45.28978" lon="4.45166">
        <ele>1133</ele>
        <time>2022-02-02T11:47:22Z</time>
      </trkpt>
      <trkpt lat="45.29001" lon="4.4523">
        <ele>1137</ele>
        <time>2022-02-02T11:48:29Z</time>
      </trkpt>
      <trkpt lat="45.29026" lon="4.45278">
        <ele>1139</ele>
        <time>2022-02-02T11:49:25Z</time>
      </trkpt>
      <trkpt lat="45.29043" lon="4.45328">
        <ele>1142</ele>
        <time>2022-02-02T11:50:17Z</time>
      </trkpt>
      <trkpt lat="45.29045" lon="4.45396">
        <ele>1147</ele>
        <time>2022-02-02T11:51:21Z</time>
      </trkpt>
      <trkpt lat="45.29035" lon="4.45455">
        <ele>1152</ele>
        <time>2022-02-02T11:52:18Z</time>
      </trkpt>
      <trkpt lat="45.29033" lon="4.45538">
        <ele>1157</ele>
        <time>2022-02-02T11:53:36Z</time>
      </trkpt>
      <trkpt lat="45.29021" lon="4.45621">
        <ele>1162</ele>
        <time>2022-02-02T11:54:56Z</time>
      </trkpt>
      <trkpt lat="45.28983" lon="4.45658">
        <ele>1168</ele>
        <time>2022-02-02T11:55:57Z</time>
      </trkpt>
      <trkpt lat="45.28983" lon="4.45688">
        <ele>1168</ele>
        <time>2022-02-02T11:56:25Z</time>
      </trkpt>
      <trkpt lat="45.28974" lon="4.45753">
        <ele>1171</ele>
        <time>2022-02-02T11:57:28Z</time>
      </trkpt>
      <trkpt lat="45.28984" lon="4.45782">
        <ele>1171</ele>
        <time>2022-02-02T11:57:58Z</time>
      </trkpt>
      <trkpt lat="45.28975" lon="4.45821">
        <ele>1174</ele>
        <time>2022-02-02T11:58:36Z</time>
      </trkpt>
      <trkpt lat="45.28991" lon="4.45852">
        <ele>1176</ele>
        <time>2022-02-02T11:59:12Z</time>
      </trkpt>
      <trkpt lat="45.2899" lon="4.45927">
        <ele>1186</ele>
        <time>2022-02-02T12:00:23Z</time>
      </trkpt>
      <trkpt lat="45.2899" lon="4.46053">
        <ele>1202</ele>
        <time>2022-02-02T12:02:21Z</time>
      </trkpt>
      <trkpt lat="45.28971" lon="4.46082">
        <ele>1206</ele>
        <time>2022-02-02T12:02:58Z</time>
      </trkpt>
      <trkpt lat="45.28925" lon="4.46092">
        <ele>1210</ele>
        <time>2022-02-02T12:04:00Z</time>
      </trkpt>
      <trkpt lat="45.28856" lon="4.46078">
        <ele>1214</ele>
        <time>2022-02-02T12:05:33Z</time>
      </trkpt>
      <trkpt lat="45.28802" lon="4.46091">
        <ele>1217</ele>
        <time>2022-02-02T12:06:47Z</time>
      </trkpt>
      <trkpt lat="45.28789" lon="4.46081">
        <ele>1216</ele>
        <time>2022-02-02T12:07:06Z</time>
      </trkpt>
      <trkpt lat="45.28738" lon="4.46104">
        <ele>1218</ele>
        <time>2022-02-02T12:08:18Z</time>
      </trkpt>
      <trkpt lat="45.28659" lon="4.46111">
        <ele>1217</ele>
        <time>2022-02-02T12:10:03Z</time>
      </trkpt>
      <trkpt lat="45.28584" lon="4.46107">
        <ele>1219</ele>
        <time>2022-02-02T12:11:43Z</time>
      </trkpt>
      <trkpt lat="45.28562" lon="4.46089">
        <ele>1218</ele>
        <time>2022-02-02T12:12:17Z</time>
      </trkpt>
      <trkpt lat="45.28546" lon="4.46082">
        <ele>1219</ele>
        <time>2022-02-02T12:12:40Z</time>
      </trkpt>
      <trkpt lat="45.28503" lon="4.46077">
        <ele>1221</ele>
        <time>2022-02-02T12:13:37Z</time>
      </trkpt>
      <trkpt lat="45.28466" lon="4.46084">
        <ele>1220</ele>
        <time>2022-02-02T12:14:27Z</time>
      </trkpt>
      <trkpt lat="45.28409" lon="4.46112">
        <ele>1220</ele>
        <time>2022-02-02T12:15:48Z</time>
      </trkpt>
      <trkpt lat="45.28378" lon="4.46131">
        <ele>1218</ele>
        <time>2022-02-02T12:16:33Z</time>
      </trkpt>
      <trkpt lat="45.28352" lon="4.46152">
        <ele>1218</ele>
        <time>2022-02-02T12:17:13Z</time>
      </trkpt>
      <trkpt lat="45.28326" lon="4.46163">
        <ele>1218</ele>
        <time>2022-02-02T12:17:49Z</time>
      </trkpt>
      <trkpt lat="45.28312" lon="4.46173">
        <ele>1219</ele>
        <time>2022-02-02T12:18:10Z</time>
      </trkpt>
      <trkpt lat="45.28295" lon="4.46193">
        <ele>1221</ele>
        <time>2022-02-02T12:18:39Z</time>
      </trkpt>
      <trkpt lat="45.28281" lon="4.46201">
        <ele>1222</ele>
        <time>2022-02-02T12:18:59Z</time>
      </trkpt>
      <trkpt lat="45.28271" lon="4.46198">
        <ele>1222</ele>
        <time>2022-02-02T12:19:13Z</time>
      </trkpt>
      <trkpt lat="45.28242" lon="4.46173">
        <ele>1221</ele>
        <time>2022-02-02T12:19:58Z</time>
      </trkpt>
      <trkpt lat="45.28224" lon="4.46166">
        <ele>1221</ele>
        <time>2022-02-02T12:20:23Z</time>
      </trkpt>
      <trkpt lat="45.28201" lon="4.46161">
        <ele>1221</ele>
        <time>2022-02-02T12:20:54Z</time>
      </trkpt>
      <trkpt lat="45.28191" lon="4.46166">
        <ele>1222</ele>
        <time>2022-02-02T12:21:08Z</time>
      </trkpt>
      <trkpt lat="45.28182" lon="4.4618">
        <ele>1224</ele>
        <time>2022-02-02T12:21:26Z</time>
      </trkpt>
      <trkpt lat="45.28178" lon="4.46189">
        <ele>1224</ele>
        <time>2022-02-02T12:21:36Z</time>
      </trkpt>
      <trkpt lat="45.28198" lon="4.46206">
        <ele>1225</ele>
        <time>2022-02-02T12:22:07Z</time>
      </trkpt>
      <trkpt lat="45.28226" lon="4.46257">
        <ele>1229</ele>
        <time>2022-02-02T12:23:08Z</time>
      </trkpt>
      <trkpt lat="45.28262" lon="4.46316">
        <ele>1233</ele>
        <time>2022-02-02T12:24:21Z</time>
      </trkpt>
      <trkpt lat="45.28278" lon="4.46377">
        <ele>1237</ele>
        <time>2022-02-02T12:25:22Z</time>
      </trkpt>
      <trkpt lat="45.28284" lon="4.46432">
        <ele>1240</ele>
        <time>2022-02-02T12:26:15Z</time>
      </trkpt>
      <trkpt lat="45.2828" lon="4.46463">
        <ele>1241</ele>
        <time>2022-02-02T12:26:44Z</time>
      </trkpt>
      <trkpt lat="45.28283" lon="4.46475">
        <ele>1241</ele>
        <time>2022-02-02T12:26:56Z</time>
      </trkpt>
      <trkpt lat="45.2829" lon="4.46481">
        <ele>1241</ele>
        <time>2022-02-02T12:27:07Z</time>
      </trkpt>
      <trkpt lat="45.28314" lon="4.46486">
        <ele>1242</ele>
        <time>2022-02-02T12:27:39Z</time>
      </trkpt>
      <trkpt lat="45.28371" lon="4.46478">
        <ele>1245</ele>
        <time>2022-02-02T12:28:56Z</time>
      </trkpt>
      <trkpt lat="45.28457" lon="4.46479">
        <ele>1249</ele>
        <time>2022-02-02T12:30:51Z</time>
      </trkpt>
      <trkpt lat="45.285" lon="4.46487">
        <ele>1251</ele>
        <time>2022-02-02T12:31:48Z</time>
      </trkpt>
      <trkpt lat="45.2851" lon="4.46497">
        <ele>1251</ele>
        <time>2022-02-02T12:32:05Z</time>
      </trkpt>
      <trkpt lat="45.28529" lon="4.46501">
        <ele>1251</ele>
        <time>2022-02-02T12:32:30Z</time>
      </trkpt>
      <trkpt lat="45.2851" lon="4.46497">
        <ele>1251</ele>
        <time>2022-02-02T12:32:56Z</time>
      </trkpt>
      <trkpt lat="45.28515" lon="4.46509">
        <ele>1252</ele>
        <time>2022-02-02T12:33:09Z</time>
      </trkpt>
      <trkpt lat="45.28527" lon="4.46551">
        <ele>1254</ele>
        <time>2022-02-02T12:33:52Z</time>
      </trkpt>
      <trkpt lat="45.28529" lon="4.46572">
        <ele>1256</ele>
        <time>2022-02-02T12:34:12Z</time>
      </trkpt>
      <trkpt lat="45.28506" lon="4.46916">
        <ele>1267</ele>
        <time>2022-02-02T12:39:36Z</time>
      </trkpt>
      <trkpt lat="45.28507" lon="4.46927">
        <ele>1266</ele>
        <time>2022-02-02T12:39:46Z</time>
      </trkpt>
      <trkpt lat="45.28515" lon="4.46953">
        <ele>1266</ele>
        <time>2022-02-02T12:40:13Z</time>
      </trkpt>
      <trkpt lat="45.28562" lon="4.4709">
        <ele>1268</ele>
        <time>2022-02-02T12:42:36Z</time>
      </trkpt>
      <trkpt lat="45.28596" lon="4.47173">
        <ele>1270</ele>
        <time>2022-02-02T12:44:06Z</time>
      </trkpt>
      <trkpt lat="45.28637" lon="4.47253">
        <ele>1268</ele>
        <time>2022-02-02T12:45:39Z</time>
      </trkpt>
      <trkpt lat="45.28713" lon="4.47329">
        <ele>1265</ele>
        <time>2022-02-02T12:47:43Z</time>
      </trkpt>
      <trkpt lat="45.28741" lon="4.47347">
        <ele>1264</ele>
        <time>2022-02-02T12:48:24Z</time>
      </trkpt>
      <trkpt lat="45.28798" lon="4.47371">
        <ele>1262</ele>
        <time>2022-02-02T12:49:44Z</time>
      </trkpt>
      <trkpt lat="45.2881" lon="4.47373">
        <ele>1262</ele>
        <time>2022-02-02T12:50:00Z</time>
      </trkpt>
      <trkpt lat="45.28825" lon="4.47379">
        <ele>1261</ele>
        <time>2022-02-02T12:50:21Z</time>
      </trkpt>
      <trkpt lat="45.28831" lon="4.47385">
        <ele>1260</ele>
        <time>2022-02-02T12:50:30Z</time>
      </trkpt>
      <trkpt lat="45.28852" lon="4.47411">
        <ele>1258</ele>
        <time>2022-02-02T12:51:08Z</time>
      </trkpt>
      <trkpt lat="45.28867" lon="4.47436">
        <ele>1257</ele>
        <time>2022-02-02T12:51:38Z</time>
      </trkpt>
      <trkpt lat="45.28923" lon="4.47565">
        <ele>1255</ele>
        <time>2022-02-02T12:54:01Z</time>
      </trkpt>
      <trkpt lat="45.2894" lon="4.47594">
        <ele>1254</ele>
        <time>2022-02-02T12:54:36Z</time>
      </trkpt>
      <trkpt lat="45.28945" lon="4.47609">
        <ele>1254</ele>
        <time>2022-02-02T12:54:52Z</time>
      </trkpt>
      <trkpt lat="45.28949" lon="4.47643">
        <ele>1253</ele>
        <time>2022-02-02T12:55:24Z</time>
      </trkpt>
      <trkpt lat="45.28952" lon="4.47653">
        <ele>1253</ele>
        <time>2022-02-02T12:55:34Z</time>
      </trkpt>
      <trkpt lat="45.28965" lon="4.47666">
        <ele>1253</ele>
        <time>2022-02-02T12:55:55Z</time>
      </trkpt>
      <trkpt lat="45.28976" lon="4.47672">
        <ele>1252</ele>
        <time>2022-02-02T12:56:11Z</time>
      </trkpt>
      <trkpt lat="45.29004" lon="4.47695">
        <ele>1251</ele>
        <time>2022-02-02T12:56:54Z</time>
      </trkpt>
      <trkpt lat="45.29013" lon="4.47706">
        <ele>1251</ele>
        <time>2022-02-02T12:57:10Z</time>
      </trkpt>
      <trkpt lat="45.29035" lon="4.47742">
        <ele>1248</ele>
        <time>2022-02-02T12:57:55Z</time>
      </trkpt>
      <trkpt lat="45.29082" lon="4.47806">
        <ele>1247</ele>
        <time>2022-02-02T12:59:22Z</time>
      </trkpt>
      <trkpt lat="45.29096" lon="4.4782">
        <ele>1247</ele>
        <time>2022-02-02T12:59:45Z</time>
      </trkpt>
      <trkpt lat="45.29101" lon="4.47822">
        <ele>1247</ele>
        <time>2022-02-02T12:59:52Z</time>
      </trkpt>
      <trkpt lat="45.29108" lon="4.47821">
        <ele>1247</ele>
        <time>2022-02-02T13:00:01Z</time>
      </trkpt>
      <trkpt lat="45.29113" lon="4.47812">
        <ele>1248</ele>
        <time>2022-02-02T13:00:12Z</time>
      </trkpt>
      <trkpt lat="45.29123" lon="4.47783">
        <ele>1249</ele>
        <time>2022-02-02T13:00:42Z</time>
      </trkpt>
      <trkpt lat="45.29168" lon="4.47721">
        <ele>1250</ele>
        <time>2022-02-02T13:02:06Z</time>
      </trkpt>
      <trkpt lat="45.29206" lon="4.47674">
        <ele>1249</ele>
        <time>2022-02-02T13:03:13Z</time>
      </trkpt>
      <trkpt lat="45.29231" lon="4.47646">
        <ele>1249</ele>
        <time>2022-02-02T13:03:55Z</time>
      </trkpt>
      <trkpt lat="45.29254" lon="4.47626">
        <ele>1249</ele>
        <time>2022-02-02T13:04:31Z</time>
      </trkpt>
      <trkpt lat="45.29267" lon="4.47611">
        <ele>1249</ele>
        <time>2022-02-02T13:04:54Z</time>
      </trkpt>
      <trkpt lat="45.29351" lon="4.47488">
        <ele>1257</ele>
        <time>2022-02-02T13:07:35Z</time>
      </trkpt>
      <trkpt lat="45.29436" lon="4.47337">
        <ele>1260</ele>
        <time>2022-02-02T13:10:36Z</time>
      </trkpt>
      <trkpt lat="45.29474" lon="4.47331">
        <ele>1256</ele>
        <time>2022-02-02T13:11:27Z</time>
      </trkpt>
      <trkpt lat="45.29585" lon="4.47389">
        <ele>1244</ele>
        <time>2022-02-02T13:14:05Z</time>
      </trkpt>
      <trkpt lat="45.29635" lon="4.47408">
        <ele>1239</ele>
        <time>2022-02-02T13:15:14Z</time>
      </trkpt>
      <trkpt lat="45.29732" lon="4.47375">
        <ele>1232</ele>
        <time>2022-02-02T13:17:27Z</time>
      </trkpt>
      <trkpt lat="45.29732" lon="4.474">
        <ele>1231</ele>
        <time>2022-02-02T13:17:51Z</time>
      </trkpt>
      <trkpt lat="45.29696" lon="4.47492">
        <ele>1229</ele>
        <time>2022-02-02T13:19:29Z</time>
      </trkpt>
      <trkpt lat="45.29695" lon="4.47548">
        <ele>1224</ele>
        <time>2022-02-02T13:20:22Z</time>
      </trkpt>
      <trkpt lat="45.29658" lon="4.47659">
        <ele>1220</ele>
        <time>2022-02-02T13:22:17Z</time>
      </trkpt>
      <trkpt lat="45.29642" lon="4.47731">
        <ele>1217</ele>
        <time>2022-02-02T13:23:28Z</time>
      </trkpt>
      <trkpt lat="45.2965" lon="4.47843">
        <ele>1206</ele>
        <time>2022-02-02T13:25:14Z</time>
      </trkpt>
      <trkpt lat="45.29692" lon="4.47918">
        <ele>1199</ele>
        <time>2022-02-02T13:26:44Z</time>
      </trkpt>
      <trkpt lat="45.29738" lon="4.47982">
        <ele>1196</ele>
        <time>2022-02-02T13:28:10Z</time>
      </trkpt>
      <trkpt lat="45.2977" lon="4.48036">
        <ele>1193</ele>
        <time>2022-02-02T13:29:16Z</time>
      </trkpt>
      <trkpt lat="45.29793" lon="4.48058">
        <ele>1190</ele>
        <time>2022-02-02T13:29:53Z</time>
      </trkpt>
      <trkpt lat="45.29821" lon="4.48083">
        <ele>1187</ele>
        <time>2022-02-02T13:30:37Z</time>
      </trkpt>
      <trkpt lat="45.29819" lon="4.48084">
        <ele>1187</ele>
        <time>2022-02-02T13:30:40Z</time>
      </trkpt>
      <trkpt lat="45.29821" lon="4.48083">
        <ele>1187</ele>
        <time>2022-02-02T13:30:43Z</time>
      </trkpt>
      <trkpt lat="45.29827" lon="4.48088">
        <ele>1187</ele>
        <time>2022-02-02T13:30:52Z</time>
      </trkpt>
      <trkpt lat="45.2985" lon="4.48126">
        <ele>1186</ele>
        <time>2022-02-02T13:31:39Z</time>
      </trkpt>
      <trkpt lat="45.29849" lon="4.48167">
        <ele>1187</ele>
        <time>2022-02-02T13:32:18Z</time>
      </trkpt>
      <trkpt lat="45.29886" lon="4.48251">
        <ele>1190</ele>
        <time>2022-02-02T13:33:51Z</time>
      </trkpt>
      <trkpt lat="45.29939" lon="4.48334">
        <ele>1186</ele>
        <time>2022-02-02T13:35:36Z</time>
      </trkpt>
      <trkpt lat="45.30088" lon="4.4845">
        <ele>1180</ele>
        <time>2022-02-02T13:39:23Z</time>
      </trkpt>
      <trkpt lat="45.30142" lon="4.48523">
        <ele>1179</ele>
        <time>2022-02-02T13:41:02Z</time>
      </trkpt>
      <trkpt lat="45.30212" lon="4.4859">
        <ele>1177</ele>
        <time>2022-02-02T13:42:55Z</time>
      </trkpt>
      <trkpt lat="45.30228" lon="4.48594">
        <ele>1177</ele>
        <time>2022-02-02T13:43:16Z</time>
      </trkpt>
      <trkpt lat="45.30166" lon="4.48679">
        <ele>1175</ele>
        <time>2022-02-02T13:45:11Z</time>
      </trkpt>
      <trkpt lat="45.30121" lon="4.48722">
        <ele>1175</ele>
        <time>2022-02-02T13:46:24Z</time>
      </trkpt>
      <trkpt lat="45.30067" lon="4.48742">
        <ele>1173</ele>
        <time>2022-02-02T13:47:38Z</time>
      </trkpt>
      <trkpt lat="45.29971" lon="4.48831">
        <ele>1169</ele>
        <time>2022-02-02T13:50:11Z</time>
      </trkpt>
      <trkpt lat="45.29992" lon="4.4882">
        <ele>1170</ele>
        <time>2022-02-02T13:50:41Z</time>
      </trkpt>
      <trkpt lat="45.30002" lon="4.48824">
        <ele>1171</ele>
        <time>2022-02-02T13:50:55Z</time>
      </trkpt>
      <trkpt lat="45.30016" lon="4.48835">
        <ele>1172</ele>
        <time>2022-02-02T13:51:16Z</time>
      </trkpt>
      <trkpt lat="45.30033" lon="4.48844">
        <ele>1174</ele>
        <time>2022-02-02T13:51:40Z</time>
      </trkpt>
      <trkpt lat="45.30041" lon="4.48852">
        <ele>1174</ele>
        <time>2022-02-02T13:51:53Z</time>
      </trkpt>
      <trkpt lat="45.30058" lon="4.48883">
        <ele>1176</ele>
        <time>2022-02-02T13:52:30Z</time>
      </trkpt>
      <trkpt lat="45.30067" lon="4.48887">
        <ele>1177</ele>
        <time>2022-02-02T13:52:43Z</time>
      </trkpt>
      <trkpt lat="45.30077" lon="4.48889">
        <ele>1179</ele>
        <time>2022-02-02T13:52:56Z</time>
      </trkpt>
      <trkpt lat="45.30101" lon="4.48905">
        <ele>1181</ele>
        <time>2022-02-02T13:53:32Z</time>
      </trkpt>
      <trkpt lat="45.30121" lon="4.48926">
        <ele>1182</ele>
        <time>2022-02-02T13:54:05Z</time>
      </trkpt>
      <trkpt lat="45.30136" lon="4.48929">
        <ele>1183</ele>
        <time>2022-02-02T13:54:25Z</time>
      </trkpt>
      <trkpt lat="45.30129" lon="4.48944">
        <ele>1183</ele>
        <time>2022-02-02T13:54:42Z</time>
      </trkpt>
      <trkpt lat="45.30136" lon="4.48929">
        <ele>1183</ele>
        <time>2022-02-02T13:54:59Z</time>
      </trkpt>
      <trkpt lat="45.30151" lon="4.48931">
        <ele>1184</ele>
        <time>2022-02-02T13:55:19Z</time>
      </trkpt>
      <trkpt lat="45.30168" lon="4.48939">
        <ele>1184</ele>
        <time>2022-02-02T13:55:43Z</time>
      </trkpt>
      <trkpt lat="45.30181" lon="4.48942">
        <ele>1184</ele>
        <time>2022-02-02T13:56:01Z</time>
      </trkpt>
      <trkpt lat="45.302" lon="4.48941">
        <ele>1183</ele>
        <time>2022-02-02T13:56:26Z</time>
      </trkpt>
      <trkpt lat="45.30181" lon="4.48942">
        <ele>1184</ele>
        <time>2022-02-02T13:56:51Z</time>
      </trkpt>
      <trkpt lat="45.30168" lon="4.48939">
        <ele>1184</ele>
        <time>2022-02-02T13:57:09Z</time>
      </trkpt>
      <trkpt lat="45.30151" lon="4.48931">
        <ele>1184</ele>
        <time>2022-02-02T13:57:33Z</time>
      </trkpt>
      <trkpt lat="45.30136" lon="4.48929">
        <ele>1183</ele>
        <time>2022-02-02T13:57:53Z</time>
      </trkpt>
      <trkpt lat="45.30122" lon="4.48959">
        <ele>1183</ele>
        <time>2022-02-02T13:58:27Z</time>
      </trkpt>
      <trkpt lat="45.30136" lon="4.48929">
        <ele>1183</ele>
        <time>2022-02-02T13:59:00Z</time>
      </trkpt>
      <trkpt lat="45.30144" lon="4.48913">
        <ele>1184</ele>
        <time>2022-02-02T13:59:19Z</time>
      </trkpt>
      <trkpt lat="45.30163" lon="4.48846">
        <ele>1183</ele>
        <time>2022-02-02T14:00:27Z</time>
      </trkpt>
      <trkpt lat="45.30194" lon="4.48784">
        <ele>1178</ele>
        <time>2022-02-02T14:01:38Z</time>
      </trkpt>
      <trkpt lat="45.30215" lon="4.48722">
        <ele>1175</ele>
        <time>2022-02-02T14:02:43Z</time>
      </trkpt>
      <trkpt lat="45.30224" lon="4.48705">
        <ele>1175</ele>
        <time>2022-02-02T14:03:03Z</time>
      </trkpt>
      <trkpt lat="45.30231" lon="4.48677">
        <ele>1175</ele>
        <time>2022-02-02T14:03:31Z</time>
      </trkpt>
      <trkpt lat="45.30256" lon="4.48609">
        <ele>1177</ele>
        <time>2022-02-02T14:04:43Z</time>
      </trkpt>
      <trkpt lat="45.30257" lon="4.48597">
        <ele>1177</ele>
        <time>2022-02-02T14:04:54Z</time>
      </trkpt>
      <trkpt lat="45.30273" lon="4.48547">
        <ele>1178</ele>
        <time>2022-02-02T14:05:45Z</time>
      </trkpt>
      <trkpt lat="45.30286" lon="4.48515">
        <ele>1178</ele>
        <time>2022-02-02T14:06:20Z</time>
      </trkpt>
      <trkpt lat="45.30326" lon="4.48398">
        <ele>1178</ele>
        <time>2022-02-02T14:08:22Z</time>
      </trkpt>
      <trkpt lat="45.30346" lon="4.48344">
        <ele>1177</ele>
        <time>2022-02-02T14:09:19Z</time>
      </trkpt>
      <trkpt lat="45.30381" lon="4.48219">
        <ele>1175</ele>
        <time>2022-02-02T14:11:26Z</time>
      </trkpt>
      <trkpt lat="45.30407" lon="4.48117">
        <ele>1173</ele>
        <time>2022-02-02T14:13:08Z</time>
      </trkpt>
      <trkpt lat="45.30424" lon="4.48045">
        <ele>1173</ele>
        <time>2022-02-02T14:14:19Z</time>
      </trkpt>
      <trkpt lat="45.30439" lon="4.47974">
        <ele>1171</ele>
        <time>2022-02-02T14:15:28Z</time>
      </trkpt>
      <trkpt lat="45.30446" lon="4.47905">
        <ele>1170</ele>
        <time>2022-02-02T14:16:34Z</time>
      </trkpt>
      <trkpt lat="45.30452" lon="4.47865">
        <ele>1169</ele>
        <time>2022-02-02T14:17:12Z</time>
      </trkpt>
      <trkpt lat="45.30452" lon="4.47855">
        <ele>1168</ele>
        <time>2022-02-02T14:17:22Z</time>
      </trkpt>
      <trkpt lat="45.30443" lon="4.47861">
        <ele>1169</ele>
        <time>2022-02-02T14:17:35Z</time>
      </trkpt>
      <trkpt lat="45.30452" lon="4.47855">
        <ele>1168</ele>
        <time>2022-02-02T14:17:48Z</time>
      </trkpt>
      <trkpt lat="45.30457" lon="4.4786">
        <ele>1169</ele>
        <time>2022-02-02T14:17:56Z</time>
      </trkpt>
      <trkpt lat="45.30545" lon="4.47875">
        <ele>1168</ele>
        <time>2022-02-02T14:19:55Z</time>
      </trkpt>
      <trkpt lat="45.30644" lon="4.47952">
        <ele>1167</ele>
        <time>2022-02-02T14:22:25Z</time>
      </trkpt>
      <trkpt lat="45.30688" lon="4.47967">
        <ele>1166</ele>
        <time>2022-02-02T14:23:26Z</time>
      </trkpt>
      <trkpt lat="45.30742" lon="4.47969">
        <ele>1167</ele>
        <time>2022-02-02T14:24:38Z</time>
      </trkpt>
      <trkpt lat="45.30795" lon="4.48003">
        <ele>1168</ele>
        <time>2022-02-02T14:25:55Z</time>
      </trkpt>
      <trkpt lat="45.30911" lon="4.48028">
        <ele>1177</ele>
        <time>2022-02-02T14:28:32Z</time>
      </trkpt>
      <trkpt lat="45.31077" lon="4.48102">
        <ele>1184</ele>
        <time>2022-02-02T14:32:24Z</time>
      </trkpt>
      <trkpt lat="45.31187" lon="4.48111">
        <ele>1191</ele>
        <time>2022-02-02T14:34:51Z</time>
      </trkpt>
      <trkpt lat="45.31356" lon="4.48143">
        <ele>1198</ele>
        <time>2022-02-02T14:38:39Z</time>
      </trkpt>
      <trkpt lat="45.3144" lon="4.48143">
        <ele>1205</ele>
        <time>2022-02-02T14:40:31Z</time>
      </trkpt>
      <trkpt lat="45.31479" lon="4.4808">
        <ele>1203</ele>
        <time>2022-02-02T14:41:49Z</time>
      </trkpt>
      <trkpt lat="45.31511" lon="4.47999">
        <ele>1203</ele>
        <time>2022-02-02T14:43:17Z</time>
      </trkpt>
      <trkpt lat="45.31565" lon="4.47955">
        <ele>1204</ele>
        <time>2022-02-02T14:44:40Z</time>
      </trkpt>
      <trkpt lat="45.31593" lon="4.47949">
        <ele>1205</ele>
        <time>2022-02-02T14:45:17Z</time>
      </trkpt>
      <trkpt lat="45.31648" lon="4.47922">
        <ele>1207</ele>
        <time>2022-02-02T14:46:35Z</time>
      </trkpt>
      <trkpt lat="45.31673" lon="4.47897">
        <ele>1208</ele>
        <time>2022-02-02T14:47:16Z</time>
      </trkpt>
      <trkpt lat="45.31713" lon="4.47838">
        <ele>1209</ele>
        <time>2022-02-02T14:48:33Z</time>
      </trkpt>
      <trkpt lat="45.31753" lon="4.47793">
        <ele>1209</ele>
        <time>2022-02-02T14:49:41Z</time>
      </trkpt>
      <trkpt lat="45.31821" lon="4.47729">
        <ele>1207</ele>
        <time>2022-02-02T14:51:30Z</time>
      </trkpt>
      <trkpt lat="45.31843" lon="4.47715">
        <ele>1206</ele>
        <time>2022-02-02T14:52:02Z</time>
      </trkpt>
      <trkpt lat="45.31911" lon="4.4769">
        <ele>1201</ele>
        <time>2022-02-02T14:53:36Z</time>
      </trkpt>
      <trkpt lat="45.3194" lon="4.47685">
        <ele>1199</ele>
        <time>2022-02-02T14:54:15Z</time>
      </trkpt>
      <trkpt lat="45.32001" lon="4.47682">
        <ele>1195</ele>
        <time>2022-02-02T14:55:36Z</time>
      </trkpt>
      <trkpt lat="45.32083" lon="4.47626">
        <ele>1191</ele>
        <time>2022-02-02T14:57:37Z</time>
      </trkpt>
      <trkpt lat="45.32081" lon="4.4762">
        <ele>1190</ele>
        <time>2022-02-02T14:57:44Z</time>
      </trkpt>
      <trkpt lat="45.32083" lon="4.47626">
        <ele>1191</ele>
        <time>2022-02-02T14:57:50Z</time>
      </trkpt>
      <trkpt lat="45.32101" lon="4.47658">
        <ele>1192</ele>
        <time>2022-02-02T14:58:28Z</time>
      </trkpt>
      <trkpt lat="45.32158" lon="4.477">
        <ele>1192</ele>
        <time>2022-02-02T14:59:54Z</time>
      </trkpt>
      <trkpt lat="45.3222" lon="4.4776">
        <ele>1190</ele>
        <time>2022-02-02T15:01:34Z</time>
      </trkpt>
      <trkpt lat="45.32293" lon="4.47805">
        <ele>1183</ele>
        <time>2022-02-02T15:03:20Z</time>
      </trkpt>
      <trkpt lat="45.32409" lon="4.47929">
        <ele>1171</ele>
        <time>2022-02-02T15:06:34Z</time>
      </trkpt>
      <trkpt lat="45.32433" lon="4.48">
        <ele>1170</ele>
        <time>2022-02-02T15:07:48Z</time>
      </trkpt>
      <trkpt lat="45.3246" lon="4.48117">
        <ele>1157</ele>
        <time>2022-02-02T15:09:43Z</time>
      </trkpt>
      <trkpt lat="45.3248" lon="4.48142">
        <ele>1152</ele>
        <time>2022-02-02T15:10:19Z</time>
      </trkpt>
      <trkpt lat="45.32558" lon="4.48166">
        <ele>1141</ele>
        <time>2022-02-02T15:12:05Z</time>
      </trkpt>
      <trkpt lat="45.326" lon="4.48144">
        <ele>1141</ele>
        <time>2022-02-02T15:13:05Z</time>
      </trkpt>
      <trkpt lat="45.3261" lon="4.48131">
        <ele>1142</ele>
        <time>2022-02-02T15:13:23Z</time>
      </trkpt>
      <trkpt lat="45.32623" lon="4.48136">
        <ele>1142</ele>
        <time>2022-02-02T15:13:41Z</time>
      </trkpt>
      <trkpt lat="45.32651" lon="4.48129">
        <ele>1143</ele>
        <time>2022-02-02T15:14:19Z</time>
      </trkpt>
    </trkseg>
  </trk>
</gpx>